Time;durP1;ratioP1;P1;durP2;ratioP2;P2;SDS_P1;SDS_P2;PMS_P1;PMS_P2;Temp;Humidity;BMP_temperature;BMP_pressure;BME280_temperature;BME280_humidity;BME280_pressure;Samples;Min_cycle;Max_cycle;Signal;HPM_P1;HPM_P2
2022/12/20 00:01:44;;;;;;;5.75;1.17;;;21.50;54.90;;;;;;4055781;29;20091;-47
2022/12/20 00:04:07;;;;;;;3.67;1.30;;;21.60;54.80;;;;;;4051646;29;20045;-55
2022/12/20 00:06:30;;;;;;;2.47;1.20;;;21.70;54.90;;;;;;4059472;29;20063;-56
2022/12/20 00:08:55;;;;;;;4.90;1.17;;;21.60;54.90;;;;;;4052014;29;20028;-59
2022/12/20 00:11:18;;;;;;;11.93;1.85;;;21.70;55.00;;;;;;4052654;29;20536;-57
2022/12/20 00:13:40;;;;;;;9.05;1.77;;;21.80;54.70;;;;;;4048332;29;20488;-57
2022/12/20 00:16:14;;;;;;;3.15;1.20;;;21.80;53.70;;;;;;4054371;29;20151;-55
2022/12/20 00:18:38;;;;;;;5.28;1.85;;;21.80;53.30;;;;;;4053533;29;20047;-58
2022/12/20 00:21:02;;;;;;;3.97;1.50;;;21.80;53.60;;;;;;4053422;29;20078;-63
2022/12/20 00:23:25;;;;;;;3.42;1.25;;;21.80;53.90;;;;;;4048104;29;20095;-62
2022/12/20 00:25:47;;;;;;;4.20;1.60;;;21.80;54.10;;;;;;4049744;29;20040;-60
2022/12/20 00:28:10;;;;;;;5.30;1.38;;;21.90;54.20;;;;;;4054653;29;20071;-60
2022/12/20 00:30:32;;;;;;;4.10;1.15;;;22.00;54.30;;;;;;4053040;29;20186;-59
2022/12/20 00:32:55;;;;;;;2.65;1.20;;;22.00;54.30;;;;;;4053483;29;20401;-56
2022/12/20 00:35:17;;;;;;;7.45;1.88;;;22.00;53.70;;;;;;4053604;29;20537;-54
2022/12/20 00:37:40;;;;;;;3.55;1.20;;;22.00;53.30;;;;;;4053886;29;20040;-56
2022/12/20 00:40:05;;;;;;;3.40;1.20;;;22.10;53.10;;;;;;4053690;29;20646;-56
2022/12/20 00:42:27;;;;;;;3.60;1.25;;;22.10;52.70;;;;;;4052579;29;20040;-57
2022/12/20 00:44:50;;;;;;;3.85;1.35;;;22.10;52.60;;;;;;4053988;29;20047;-57
2022/12/20 00:47:12;;;;;;;4.22;1.20;;;22.10;52.50;;;;;;4053306;29;20047;-58
2022/12/20 00:49:35;;;;;;;5.35;1.40;;;22.20;52.50;;;;;;4041747;29;20044;-58
2022/12/20 00:51:57;;;;;;;4.22;1.55;;;22.10;52.40;;;;;;4052187;29;20044;-59
2022/12/20 00:54:20;;;;;;;4.40;1.33;;;22.20;52.20;;;;;;4049383;29;20032;-53
2022/12/20 00:56:42;;;;;;;3.53;1.10;;;22.20;52.20;;;;;;4049715;29;20048;-59
2022/12/20 00:59:05;;;;;;;5.22;1.30;;;22.20;52.10;;;;;;4053409;29;20036;-59
2022/12/20 01:01:31;;;;;;;3.53;1.00;;;22.20;52.10;;;;;;4052446;29;20139;-59
2022/12/20 01:03:54;;;;;;;3.72;1.23;;;22.30;52.00;;;;;;4039680;29;20131;-56
2022/12/20 01:06:17;;;;;;;4.32;1.30;;;22.30;52.00;;;;;;4050905;29;20125;-59
2022/12/20 01:08:40;;;;;;;3.28;1.00;;;22.30;51.90;;;;;;4051972;29;20115;-60
2022/12/20 01:11:17;;;;;;;3.78;1.20;;;22.30;51.90;;;;;;4053586;29;20079;-60
2022/12/20 01:13:43;;;;;;;4.57;1.13;;;22.40;52.20;;;;;;4053930;29;20453;-59
2022/12/20 01:16:15;;;;;;;3.05;1.02;;;22.50;52.40;;;;;;4053086;29;20515;-53
2022/12/20 01:18:37;;;;;;;2.15;1.08;;;22.50;52.50;;;;;;4052177;29;20502;-56
2022/12/20 01:21:08;;;;;;;3.50;1.20;;;22.60;52.60;;;;;;4051320;29;20071;-57
2022/12/20 01:23:31;;;;;;;2.95;1.33;;;22.60;52.70;;;;;;4053039;29;20044;-56
2022/12/20 01:25:54;;;;;;;3.45;1.42;;;22.70;52.60;;;;;;4054978;29;20044;-56
2022/12/20 01:28:16;;;;;;;2.95;0.95;;;22.80;52.40;;;;;;4052566;29;20446;-53
2022/12/20 01:30:42;;;;;;;4.32;1.23;;;22.80;52.50;;;;;;4054306;29;20131;-53
2022/12/20 01:33:05;;;;;;;2.90;0.93;;;22.80;52.50;;;;;;4050513;29;20044;-55
2022/12/20 01:35:27;;;;;;;5.20;1.15;;;22.90;52.40;;;;;;4052882;29;20582;-58
2022/12/20 01:37:50;;;;;;;4.63;1.02;;;22.90;52.40;;;;;;4052747;29;20107;-59
2022/12/20 01:40:12;;;;;;;3.45;1.10;;;23.00;52.40;;;;;;4052776;29;20170;-60
2022/12/20 01:42:35;;;;;;;2.33;1.08;;;23.00;52.40;;;;;;4052995;29;20527;-57
2022/12/20 01:45:00;;;;;;;2.53;1.08;;;23.00;52.50;;;;;;4052780;29;20043;-57
2022/12/20 01:47:24;;;;;;;2.65;0.65;;;23.10;52.60;;;;;;4038389;29;20127;-59
2022/12/20 01:49:50;;;;;;;2.25;0.88;;;23.10;52.40;;;;;;4051248;29;20040;-58
2022/12/20 01:52:33;;;;;;;2.65;1.00;;;23.10;52.40;;;;;;4051861;29;20358;-59
2022/12/20 01:55:01;;;;;;;3.40;1.00;;;23.20;52.50;;;;;;4050857;29;20095;-53
2022/12/20 01:57:46;;;;;;;2.70;1.13;;;23.20;53.10;;;;;;4049642;29;20032;-57
2022/12/20 02:00:09;;;;;;;1.92;1.10;;;23.20;52.40;;;;;;4053406;29;20134;-58
2022/12/20 02:02:32;;;;;;;2.95;1.30;;;23.30;52.40;;;;;;4049439;29;20446;-53
2022/12/20 02:04:55;;;;;;;2.05;1.17;;;23.30;52.30;;;;;;4049140;29;20036;-56
2022/12/20 02:07:26;;;;;;;3.25;1.60;;;23.30;52.30;;;;;;4046756;29;20131;-56
2022/12/20 02:09:49;;;;;;;3.83;1.10;;;23.40;52.30;;;;;;4050491;29;20520;-58
2022/12/20 02:12:17;;;;;;;4.40;1.20;;;23.40;52.20;;;;;;4053430;29;20040;-58
2022/12/20 02:14:50;;;;;;;3.45;1.00;;;23.40;52.30;;;;;;4051464;29;20032;-59
2022/12/20 02:17:32;;;;;;;2.42;1.00;;;23.40;52.20;;;;;;4053270;29;20043;-59
2022/12/20 02:20:22;;;;;;;4.35;1.25;;;23.50;52.30;;;;;;4052694;29;20127;-57
2022/12/20 02:23:18;;;;;;;2.97;1.15;;;23.50;52.30;;;;;;4050670;29;20047;-59
2022/12/20 02:26:11;;;;;;;1.80;0.82;;;23.50;52.10;;;;;;4051469;29;20048;-61
2022/12/20 02:28:46;;;;;;;2.72;1.33;;;23.50;52.10;;;;;;4029804;29;20557;-53
2022/12/20 02:31:10;;;;;;;;;;;23.60;52.10;;;;;;4049372;29;20449;-50
2022/12/20 02:33:33;;;;;;;2.78;0.90;;;23.60;51.00;;;;;;4051585;29;20002;-51
2022/12/20 02:35:56;;;;;;;2.60;1.10;;;23.60;49.50;;;;;;4049211;29;20043;-55
2022/12/20 02:38:30;;;;;;;3.22;1.45;;;23.60;48.90;;;;;;4038246;29;20413;-55
2022/12/20 02:41:15;;;;;;;2.95;1.17;;;23.60;48.90;;;;;;4052409;29;20044;-55
2022/12/20 02:46:23;;;;;;;2.35;0.98;;;23.50;48.70;;;;;;4048121;29;20064;-53
2022/12/20 02:48:46;;;;;;;;;;;23.50;48.90;;;;;;4048057;29;20050;-49
2022/12/20 02:51:10;;;;;;;4.45;1.40;;;23.40;48.80;;;;;;4049505;29;20331;-60
2022/12/20 02:53:34;;;;;;;3.08;1.15;;;23.40;49.00;;;;;;4052252;29;20050;-55
2022/12/20 02:56:31;;;;;;;5.25;1.00;;;23.40;49.30;;;;;;4033554;29;20433;-57
2022/12/20 02:59:02;;;;;;;3.83;1.63;;;23.40;49.50;;;;;;4051836;29;20536;-59
2022/12/20 03:01:35;;;;;;;4.32;1.58;;;23.50;49.90;;;;;;4050168;29;20052;-55
2022/12/20 03:03:59;;;;;;;5.75;1.30;;;23.50;50.10;;;;;;4052201;29;20385;-57
2022/12/20 03:06:22;;;;;;;3.10;1.00;;;23.50;50.20;;;;;;4051463;29;20074;-57
2022/12/20 03:08:45;;;;;;;2.15;1.00;;;23.60;50.30;;;;;;4051052;29;20048;-56
2022/12/20 03:11:08;;;;;;;3.42;1.48;;;23.60;50.40;;;;;;4050588;29;20416;-53
2022/12/20 03:13:30;;;;;;;4.10;1.10;;;23.70;50.60;;;;;;4052743;29;20036;-55
2022/12/20 03:15:53;;;;;;;1.85;1.00;;;23.70;50.60;;;;;;4052312;29;20096;-48
2022/12/20 03:18:16;;;;;;;3.10;1.15;;;23.80;50.70;;;;;;4035988;29;20077;-57
2022/12/20 03:20:39;;;;;;;4.95;1.35;;;23.80;50.70;;;;;;4060841;29;20036;-59
2022/12/20 03:23:02;;;;;;;2.85;0.95;;;23.90;50.80;;;;;;4042398;29;20032;-55
2022/12/20 03:25:26;;;;;;;3.75;1.58;;;23.90;50.80;;;;;;4061196;29;20040;-57
2022/12/20 03:27:48;;;;;;;;;;;23.90;50.80;;;;;;4056498;29;20042;-55
2022/12/20 03:30:11;;;;;;;2.85;1.20;;;24.00;50.90;;;;;;4051129;29;20244;-59
2022/12/20 03:32:33;;;;;;;2.15;1.10;;;24.00;50.80;;;;;;4051358;29;20040;-58
2022/12/20 03:34:56;;;;;;;3.22;1.15;;;24.00;50.80;;;;;;4049250;29;21114;-57
2022/12/20 03:37:19;;;;;;;2.95;1.10;;;24.10;50.80;;;;;;4050960;29;20043;-58
2022/12/20 03:39:41;;;;;;;3.70;1.30;;;24.10;50.90;;;;;;4050239;29;20454;-56
2022/12/20 03:42:04;;;;;;;4.10;1.20;;;24.10;50.90;;;;;;4049699;29;20094;-57
2022/12/20 03:44:27;;;;;;;3.47;1.07;;;24.20;51.00;;;;;;4048153;29;20105;-58
2022/12/20 03:46:49;;;;;;;6.72;1.30;;;24.20;51.00;;;;;;4047057;29;20044;-51
2022/12/20 03:49:12;;;;;;;3.58;1.30;;;24.20;50.80;;;;;;4045180;29;20127;-49
2022/12/20 03:51:35;;;;;;;4.57;1.55;;;24.20;51.00;;;;;;4039537;29;20033;-56
2022/12/20 03:53:57;;;;;;;5.80;1.55;;;24.20;51.10;;;;;;4042653;29;20035;-52
2022/12/20 03:56:20;;;;;;;4.45;1.65;;;24.30;51.40;;;;;;4043243;29;20036;-60
2022/12/20 03:58:43;;;;;;;9.70;1.45;;;24.30;51.30;;;;;;4039173;29;20036;-61
2022/12/20 04:01:26;;;;;;;4.70;1.50;;;24.30;51.20;;;;;;4044308;29;20124;-54
2022/12/20 04:03:49;;;;;;;3.58;1.20;;;24.40;51.10;;;;;;4046464;29;20088;-53
2022/12/20 04:06:12;;;;;;;4.15;0.98;;;24.40;51.00;;;;;;4046341;29;20335;-53
2022/12/20 04:08:34;;;;;;;2.67;1.10;;;24.40;50.20;;;;;;4046862;29;20044;-53
2022/12/20 04:11:15;;;;;;;3.05;1.13;;;24.40;49.70;;;;;;4046762;29;20282;-51
2022/12/20 04:13:38;;;;;;;3.90;1.20;;;24.40;49.50;;;;;;4043277;29;20032;-57
2022/12/20 04:16:00;;;;;;;1.75;0.98;;;24.40;49.30;;;;;;4046481;29;20048;-54
2022/12/20 04:18:23;;;;;;;2.67;1.08;;;24.40;49.20;;;;;;4046281;29;20660;-59
2022/12/20 04:20:51;;;;;;;3.58;1.35;;;24.40;49.20;;;;;;4047299;29;20487;-59
2022/12/20 04:23:13;;;;;;;5.55;1.35;;;24.40;49.10;;;;;;4047792;29;20060;-59
2022/12/20 04:25:36;;;;;;;4.70;1.00;;;24.40;49.30;;;;;;4041381;29;20464;-57
2022/12/20 04:27:59;;;;;;;2.88;0.82;;;24.50;49.40;;;;;;4050598;29;20135;-58
2022/12/20 04:30:21;;;;;;;6.78;1.25;;;24.50;49.40;;;;;;4050762;29;20095;-56
2022/12/20 04:32:44;;;;;;;4.82;0.95;;;24.60;49.40;;;;;;4051771;29;20116;-59
2022/12/20 04:35:07;;;;;;;5.72;1.23;;;24.60;49.80;;;;;;4052703;29;20389;-58
2022/12/20 04:37:30;;;;;;;4.43;1.23;;;24.70;49.80;;;;;;4052648;29;20044;-59
2022/12/20 04:39:54;;;;;;;2.35;0.90;;;24.80;49.80;;;;;;4049787;29;20044;-52
2022/12/20 04:42:16;;;;;;;2.72;0.93;;;24.90;49.60;;;;;;4048312;29;20036;-51
2022/12/20 04:44:39;;;;;;;4.38;1.33;;;24.90;49.60;;;;;;4047517;29;20040;-46
2022/12/20 04:47:02;;;;;;;3.28;0.73;;;25.00;49.60;;;;;;4047109;29;20467;-52
2022/12/20 04:49:25;;;;;;;1.23;0.70;;;25.10;49.40;;;;;;4049753;29;20039;-55
2022/12/20 04:51:47;;;;;;;2.03;0.83;;;25.10;49.40;;;;;;4048417;29;20048;-58
2022/12/20 04:54:10;;;;;;;5.45;1.00;;;25.20;49.50;;;;;;4049691;29;20044;-57
2022/12/20 04:56:32;;;;;;;3.50;1.10;;;25.20;49.40;;;;;;4051396;29;20050;-60
2022/12/20 04:58:56;;;;;;;1.38;0.55;;;25.30;49.40;;;;;;4053421;29;20048;-56
2022/12/20 05:01:20;;;;;;;1.73;0.80;;;25.40;49.40;;;;;;4053542;29;20061;-60
2022/12/20 05:03:43;;;;;;;2.70;0.95;;;25.40;49.20;;;;;;4052717;29;20051;-60
2022/12/20 05:06:06;;;;;;;5.28;0.77;;;25.50;49.10;;;;;;4027994;29;20059;-60
2022/12/20 05:08:29;;;;;;;3.38;0.57;;;25.60;49.00;;;;;;4029588;29;20044;-56
2022/12/20 05:10:51;;;;;;;5.47;0.80;;;25.70;49.00;;;;;;4046231;29;20131;-59
2022/12/20 05:13:14;;;;;;;1.55;0.50;;;25.70;48.90;;;;;;4046577;29;20048;-59
2022/12/20 05:15:37;;;;;;;3.03;0.68;;;25.80;48.90;;;;;;4045493;29;20136;-60
2022/12/20 05:17:59;;;;;;;1.80;0.40;;;25.90;48.80;;;;;;4043327;29;20044;-55
2022/12/20 05:20:22;;;;;;;7.45;0.70;;;25.90;48.60;;;;;;4035028;29;20071;-50
2022/12/20 05:28:06;;;;;;;3.13;0.75;;;26.20;48.60;;;;;;4041908;29;20040;-50
2022/12/20 05:30:28;;;;;;;2.90;0.90;;;26.20;48.40;;;;;;4045154;29;20042;-54
2022/12/20 05:32:51;;;;;;;3.05;0.98;;;26.20;48.30;;;;;;4040167;29;20040;-52
2022/12/20 05:35:14;;;;;;;4.88;0.88;;;26.30;48.30;;;;;;4044449;29;20048;-49
2022/12/20 05:37:36;;;;;;;15.02;1.67;;;26.40;48.30;;;;;;4045424;29;20044;-52
2022/12/20 05:39:59;;;;;;;5.15;1.35;;;26.50;48.40;;;;;;4045238;29;20487;-57
2022/12/20 05:42:21;;;;;;;10.05;1.33;;;26.60;48.30;;;;;;4044911;29;20111;-46
2022/12/20 05:44:44;;;;;;;10.88;2.17;;;26.70;48.20;;;;;;4050442;29;20502;-54
2022/12/20 05:47:06;;;;;;;3.30;1.13;;;26.70;48.20;;;;;;4052574;29;20191;-55
2022/12/20 05:49:29;;;;;;;5.75;1.10;;;26.80;48.10;;;;;;4053516;29;20547;-58
2022/12/20 05:51:51;;;;;;;6.53;1.10;;;26.90;48.00;;;;;;4043654;29;20048;-54
2022/12/20 05:54:15;;;;;;;2.75;1.23;;;26.90;47.80;;;;;;4040438;29;20479;-58
2022/12/20 05:56:37;;;;;;;3.03;0.90;;;27.00;47.70;;;;;;4032041;29;20052;-57
2022/12/20 06:01:10;;;;;;;2.45;1.05;;;27.20;47.50;;;;;;4815112;23;20052;-37
2022/12/20 06:03:33;;;;;;;2.50;0.90;;;27.30;47.40;;;;;;4048237;29;20047;-39
2022/12/20 06:05:55;;;;;;;2.72;1.08;;;27.30;47.30;;;;;;4052005;29;20107;-37
2022/12/20 06:08:20;;;;;;;3.35;1.02;;;27.40;47.30;;;;;;4050806;29;20128;-38
2022/12/20 06:10:42;;;;;;;2.08;0.90;;;27.40;47.10;;;;;;4050697;29;20073;-36
2022/12/20 06:13:05;;;;;;;4.47;1.48;;;27.50;47.10;;;;;;4050477;29;20531;-38
2022/12/20 06:15:28;;;;;;;2.05;1.17;;;27.50;47.00;;;;;;4052874;29;20048;-37
2022/12/20 06:17:50;;;;;;;4.83;1.67;;;27.60;47.10;;;;;;4056882;29;20028;-37
2022/12/20 06:20:13;;;;;;;4.38;1.60;;;27.60;47.10;;;;;;4055659;29;21391;-37
2022/12/20 06:22:36;;;;;;;3.95;1.27;;;27.60;47.10;;;;;;4064939;29;20070;-36
2022/12/20 06:24:58;;;;;;;2.58;1.05;;;27.60;47.10;;;;;;4057975;29;20244;-35
2022/12/20 06:27:21;;;;;;;3.45;1.25;;;27.60;47.80;;;;;;4055544;29;20127;-38
2022/12/20 06:31:48;;;;;;;2.88;1.38;;;27.50;47.30;;;;;;4029190;29;20374;-42
2022/12/20 06:34:10;;;;;;;4.70;1.30;;;27.50;47.50;;;;;;4049373;29;20036;-40
2022/12/20 06:36:33;;;;;;;11.38;2.20;;;27.50;47.50;;;;;;4048794;29;20373;-40
2022/12/20 06:38:55;;;;;;;8.52;3.13;;;27.40;47.00;;;;;;4050054;29;20076;-40
2022/12/20 06:41:18;;;;;;;8.70;2.88;;;27.40;46.20;;;;;;4049872;29;20128;-40
2022/12/20 06:43:41;;;;;;;7.23;2.13;;;27.30;45.90;;;;;;4036443;29;20043;-40
2022/12/20 06:46:03;;;;;;;3.13;1.67;;;27.20;45.50;;;;;;4054435;29;20051;-39
2022/12/20 06:48:26;;;;;;;4.35;1.83;;;27.20;45.20;;;;;;4049228;29;20039;-40
2022/12/20 06:50:51;;;;;;;4.38;1.73;;;27.10;44.90;;;;;;4052365;29;20067;-41
2022/12/20 06:53:14;;;;;;;3.75;1.33;;;27.00;44.60;;;;;;4056020;29;20123;-44
2022/12/20 06:55:38;;;;;;;3.47;1.42;;;27.00;44.50;;;;;;4054926;29;20059;-41
2022/12/20 06:58:04;;;;;;;3.13;1.33;;;26.90;44.40;;;;;;4057005;29;20119;-44
2022/12/20 07:00:26;;;;;;;4.40;1.38;;;26.90;44.60;;;;;;4051001;29;20852;-44
2022/12/20 07:02:49;;;;;;;4.53;1.13;;;26.80;44.70;;;;;;4052796;29;20131;-44
2022/12/20 07:05:11;;;;;;;5.55;1.27;;;26.80;45.00;;;;;;4050828;29;20416;-41
2022/12/20 07:07:34;;;;;;;4.70;1.23;;;26.80;45.40;;;;;;4047235;29;20048;-45
2022/12/20 07:09:57;;;;;;;3.72;1.50;;;26.70;45.80;;;;;;4035616;29;20045;-46
2022/12/20 07:12:20;;;;;;;5.30;1.30;;;26.70;46.10;;;;;;4021466;29;20093;-41
2022/12/20 07:14:43;;;;;;;4.10;1.17;;;26.80;46.20;;;;;;4030676;29;20041;-40
2022/12/20 07:17:06;;;;;;;3.72;0.98;;;26.80;45.60;;;;;;4033375;29;20043;-39
2022/12/20 07:19:28;;;;;;;2.72;0.60;;;26.70;45.20;;;;;;4034005;29;20040;-38
2022/12/20 07:21:51;;;;;;;3.47;0.98;;;26.70;44.90;;;;;;4027465;29;20463;-39
2022/12/20 07:24:13;;;;;;;2.13;0.80;;;26.60;45.00;;;;;;4026539;29;20140;-40
2022/12/20 07:26:36;;;;;;;2.55;0.88;;;26.60;45.20;;;;;;4028385;29;20148;-40
2022/12/20 07:28:59;;;;;;;1.60;0.90;;;26.50;45.20;;;;;;4028988;29;20052;-40
2022/12/20 07:31:22;;;;;;;2.42;1.17;;;26.50;45.20;;;;;;4029843;29;20066;-39
2022/12/20 07:33:44;;;;;;;1.95;0.93;;;26.40;45.90;;;;;;4026879;29;20040;-39
2022/12/20 07:36:12;;;;;;;2.97;0.80;;;26.30;45.30;;;;;;4028534;29;20858;-39
2022/12/20 07:38:35;;;;;;;1.45;0.55;;;26.30;45.40;;;;;;4032956;29;20560;-38
2022/12/20 07:40:58;;;;;;;3.08;1.17;;;26.20;45.40;;;;;;4035352;29;20063;-39
2022/12/20 07:43:20;;;;;;;1.58;0.80;;;26.20;45.30;;;;;;4034938;29;20049;-42
2022/12/20 07:45:43;;;;;;;1.63;0.50;;;26.20;45.50;;;;;;4026587;29;20481;-38
2022/12/20 07:48:05;;;;;;;1.73;0.63;;;26.10;45.70;;;;;;4033156;29;20044;-41
2022/12/20 07:50:29;;;;;;;2.72;0.90;;;26.00;45.70;;;;;;4031855;29;20063;-40
2022/12/20 07:52:51;;;;;;;1.05;0.63;;;26.00;45.70;;;;;;4033597;29;20052;-45
2022/12/20 07:55:14;;;;;;;2.40;0.70;;;25.90;45.80;;;;;;4028124;29;20113;-42
2022/12/20 07:58:02;;;;;;;1.17;0.47;;;25.90;45.90;;;;;;4031802;29;20193;-39
2022/12/20 08:00:25;;;;;;;1.67;0.80;;;25.90;46.10;;;;;;4032697;29;20041;-39
2022/12/20 08:02:59;;;;;;;2.00;0.43;;;25.80;46.00;;;;;;4024712;29;20577;-38
2022/12/20 08:05:22;;;;;;;;;;;25.80;46.10;;;;;;4029667;29;20052;-39
2022/12/20 08:07:45;;;;;;;1.67;0.70;;;25.80;46.40;;;;;;4020163;29;19994;-42
2022/12/20 08:10:11;;;;;;;2.70;0.75;;;25.70;46.20;;;;;;4027992;29;20060;-41
2022/12/20 08:12:34;;;;;;;0.50;0.40;;;25.70;46.20;;;;;;4028257;29;20115;-41
2022/12/20 08:14:58;;;;;;;1.17;0.57;;;25.60;46.20;;;;;;4026787;29;20036;-39
2022/12/20 08:17:21;;;;;;;2.47;0.88;;;25.60;46.20;;;;;;4027748;29;20120;-40
2022/12/20 08:19:43;;;;;;;0.30;0.30;;;25.60;46.10;;;;;;4029568;29;20048;-41
2022/12/20 08:22:06;;;;;;;0.40;0.30;;;25.50;46.10;;;;;;4026919;29;20044;-39
2022/12/20 08:24:28;;;;;;;0.93;0.52;;;25.50;46.20;;;;;;4031398;29;20036;-38
2022/12/20 08:26:51;;;;;;;3.35;0.68;;;25.50;46.20;;;;;;4029941;29;20112;-38
2022/12/20 08:29:13;;;;;;;1.40;0.60;;;25.40;46.30;;;;;;4034124;29;20040;-40
2022/12/20 08:31:43;;;;;;;1.63;0.50;;;25.40;46.30;;;;;;4032239;29;20389;-41
2022/12/20 08:34:06;;;;;;;0.32;0.32;;;25.40;46.40;;;;;;4036418;29;20471;-40
2022/12/20 08:36:28;;;;;;;0.33;0.27;;;25.30;46.40;;;;;;4036038;29;20048;-38
2022/12/20 08:38:51;;;;;;;1.73;0.55;;;25.30;46.30;;;;;;4035989;29;20052;-38
2022/12/20 08:41:15;;;;;;;2.50;0.70;;;25.30;46.40;;;;;;4036698;29;20036;-41
2022/12/20 08:43:39;;;;;;;1.40;0.57;;;25.30;46.50;;;;;;4034582;29;20056;-44
2022/12/20 08:46:02;;;;;;;0.95;0.50;;;25.20;46.50;;;;;;4030621;29;20273;-38
2022/12/20 08:48:25;;;;;;;0.73;0.30;;;25.20;46.50;;;;;;4033444;29;20582;-43
2022/12/20 08:50:47;;;;;;;1.23;0.50;;;25.20;46.60;;;;;;4036705;29;20524;-39
2022/12/20 08:53:10;;;;;;;1.38;0.70;;;25.10;46.70;;;;;;4036243;29;20115;-40
2022/12/20 08:55:32;;;;;;;1.17;0.63;;;25.10;46.80;;;;;;4035129;29;20507;-40
2022/12/20 08:57:55;;;;;;;1.60;0.63;;;25.10;46.80;;;;;;4035330;29;20044;-39
2022/12/20 09:00:18;;;;;;;1.70;0.55;;;25.10;46.80;;;;;;4036837;29;20428;-39
2022/12/20 09:02:41;;;;;;;1.48;0.57;;;25.10;46.90;;;;;;4030981;29;21257;-41
2022/12/20 09:05:04;;;;;;;1.33;0.40;;;25.00;46.90;;;;;;4036427;29;20459;-38
2022/12/20 09:07:26;;;;;;;1.17;0.60;;;25.00;47.00;;;;;;4033622;29;20060;-42
2022/12/20 09:09:49;;;;;;;1.85;0.55;;;25.00;47.00;;;;;;4031712;29;20040;-40
2022/12/20 09:12:11;;;;;;;1.13;0.40;;;24.90;47.00;;;;;;4032799;29;20516;-40
2022/12/20 09:14:34;;;;;;;1.80;0.50;;;24.90;47.00;;;;;;4032251;29;20037;-39
2022/12/20 09:16:56;;;;;;;1.60;0.50;;;24.90;47.20;;;;;;4033800;29;20113;-43
2022/12/20 09:19:19;;;;;;;1.23;0.30;;;24.90;47.80;;;;;;4027814;29;20135;-38
2022/12/20 09:21:42;;;;;;;2.33;0.60;;;24.80;47.20;;;;;;4030244;29;20043;-38
2022/12/20 09:24:07;;;;;;;3.47;0.70;;;24.80;47.50;;;;;;4028915;29;20123;-40
2022/12/20 09:26:31;;;;;;;0.70;0.30;;;24.80;48.20;;;;;;4033999;29;20159;-40
2022/12/20 09:28:53;;;;;;;1.20;0.40;;;24.80;48.50;;;;;;4036543;29;20115;-43
2022/12/20 09:31:19;;;;;;;1.42;0.40;;;24.80;48.70;;;;;;4033150;29;20068;-40
2022/12/20 09:33:42;;;;;;;0.55;0.40;;;24.90;48.90;;;;;;4034949;29;20052;-42
2022/12/20 09:36:06;;;;;;;0.80;0.30;;;24.90;49.10;;;;;;4034088;29;20116;-41
2022/12/20 09:38:30;;;;;;;1.10;0.30;;;24.90;49.20;;;;;;4034376;29;20111;-39
2022/12/20 09:40:55;;;;;;;0.52;0.22;;;24.90;49.20;;;;;;4020366;29;20041;-39
2022/12/20 09:43:19;;;;;;;3.53;0.50;;;24.90;49.20;;;;;;4031983;29;20128;-41
2022/12/20 09:45:44;;;;;;;2.50;0.43;;;25.00;49.30;;;;;;4032041;29;20397;-39
2022/12/20 09:48:17;;;;;;;0.80;0.60;;;25.00;49.20;;;;;;4033948;29;20044;-41
2022/12/20 09:50:51;;;;;;;1.63;0.43;;;25.00;49.20;;;;;;4033367;29;20068;-43
2022/12/20 09:53:22;;;;;;;1.20;0.50;;;25.00;49.20;;;;;;4034500;29;20044;-44
2022/12/20 09:56:08;;;;;;;1.83;0.40;;;25.10;49.40;;;;;;4032838;29;20408;-44
2022/12/20 09:58:46;;;;;;;0.52;0.30;;;25.00;49.20;;;;;;4007689;29;20055;-39
2022/12/20 10:01:19;;;;;;;2.08;0.40;;;25.10;49.30;;;;;;4032229;29;20371;-43
2022/12/20 10:03:42;;;;;;;2.63;0.50;;;25.10;49.30;;;;;;4036521;29;20514;-38
2022/12/20 10:06:45;;;;;;;0.45;0.28;;;25.10;49.40;;;;;;4034370;29;20264;-43
2022/12/20 10:09:42;;;;;;;0.32;0.28;;;25.10;50.00;;;;;;4034764;29;20033;-40
2022/12/20 10:12:17;;;;;;;0.80;0.32;;;25.10;49.40;;;;;;4028871;29;20100;-41
2022/12/20 10:15:10;;;;;;;0.80;0.55;;;25.10;49.40;;;;;;4034012;29;20547;-39
2022/12/20 10:17:54;;;;;;;0.93;0.43;;;25.10;49.30;;;;;;4031863;29;20094;-39
2022/12/20 10:20:43;;;;;;;1.73;0.77;;;25.10;49.20;;;;;;4032584;29;20091;-41
2022/12/20 10:23:29;;;;;;;1.35;0.57;;;25.20;49.30;;;;;;4023344;29;20059;-40
2022/12/20 10:25:55;;;;;;;0.93;0.63;;;25.20;49.50;;;;;;4034709;29;20475;-39
2022/12/20 10:28:30;;;;;;;1.25;0.60;;;25.10;49.30;;;;;;4034742;29;20252;-39
2022/12/20 10:30:53;;;;;;;0.93;0.40;;;25.20;49.30;;;;;;4034082;29;20052;-38
2022/12/20 10:33:23;;;;;;;0.90;0.38;;;25.20;49.30;;;;;;4036064;29;20044;-40
2022/12/20 10:35:47;;;;;;;1.17;0.30;;;25.20;49.40;;;;;;4037130;29;20549;-39
2022/12/20 10:38:12;;;;;;;2.92;0.40;;;25.10;49.30;;;;;;4044534;29;20037;-39
2022/12/20 10:44:38;;;;;;;0.70;0.30;;;25.10;49.30;;;;;;4049898;29;20037;-40
2022/12/20 10:47:00;;;;;;;;;;;25.20;49.30;;;;;;4031476;29;20049;-40
2022/12/20 10:49:39;;;;;;;1.65;0.32;;;25.20;49.30;;;;;;4030732;29;19919;-41
2022/12/20 10:52:08;;;;;;;0.50;0.32;;;25.20;49.30;;;;;;4030064;29;20753;-43
2022/12/20 10:54:39;;;;;;;4.40;0.55;;;25.20;49.30;;;;;;4027964;29;20537;-39
2022/12/20 10:57:13;;;;;;;1.42;0.30;;;25.20;49.30;;;;;;4031165;29;20043;-41
2022/12/20 10:59:37;;;;;;;0.65;0.22;;;25.20;49.30;;;;;;4035800;29;20049;-39
2022/12/20 11:01:59;;;;;;;2.70;0.65;;;25.20;49.30;;;;;;4029954;29;20036;-41
2022/12/20 11:04:37;;;;;;;0.75;0.38;;;25.20;49.30;;;;;;4035364;29;20045;-41
2022/12/20 11:07:02;;;;;;;1.38;0.50;;;25.20;49.30;;;;;;4024366;29;20177;-39
2022/12/20 11:09:31;;;;;;;1.65;0.75;;;25.20;49.30;;;;;;4028530;29;20041;-42
2022/12/20 11:12:15;;;;;;;2.00;0.60;;;25.20;49.30;;;;;;4031943;29;20124;-39
2022/12/20 11:14:38;;;;;;;5.05;0.50;;;25.20;49.30;;;;;;4036541;29;20850;-39
2022/12/20 11:17:13;;;;;;;3.10;0.40;;;25.20;49.30;;;;;;4034596;29;20054;-42
2022/12/20 11:19:45;;;;;;;0.70;0.30;;;25.20;49.30;;;;;;4026535;29;20544;-40
2022/12/20 11:22:22;;;;;;;1.60;0.70;;;25.20;49.10;;;;;;4029533;29;20045;-38
2022/12/20 11:25:21;;;;;;;0.57;0.30;;;25.20;49.20;;;;;;4031379;29;20532;-39
2022/12/20 11:27:58;;;;;;;1.33;0.40;;;25.20;49.10;;;;;;4028699;29;20052;-40
2022/12/20 11:30:26;;;;;;;0.57;0.32;;;25.20;49.10;;;;;;4036349;29;20117;-40
2022/12/20 11:33:01;;;;;;;1.40;0.40;;;25.20;48.60;;;;;;4038204;29;20033;-41
2022/12/20 11:35:44;;;;;;;1.05;0.30;;;25.20;48.40;;;;;;4035136;29;20131;-39
2022/12/20 11:38:10;;;;;;;2.97;0.90;;;25.10;48.60;;;;;;4026125;29;20512;-44
2022/12/20 11:40:40;;;;;;;4.57;1.27;;;25.10;48.80;;;;;;4025083;29;20096;-42
2022/12/20 11:43:20;;;;;;;7.35;0.90;;;25.10;49.20;;;;;;4024980;29;20040;-48
2022/12/20 11:46:18;;;;;;;1.00;0.55;;;25.10;49.60;;;;;;4025314;29;20045;-42
2022/12/20 11:49:28;;;;;;;2.30;0.50;;;25.10;49.70;;;;;;4030447;29;20040;-42
2022/12/20 11:52:29;;;;;;;3.25;0.88;;;25.10;49.80;;;;;;4007446;29;20052;-42
2022/12/20 11:55:04;;;;;;;2.38;0.65;;;25.00;50.00;;;;;;4017763;29;20490;-41
2022/12/20 11:57:39;;;;;;;3.45;0.60;;;25.00;49.90;;;;;;4034067;29;20052;-41
2022/12/20 12:00:03;;;;;;;2.50;0.60;;;25.00;50.00;;;;;;4031691;29;20032;-43
2022/12/20 12:02:37;;;;;;;4.88;0.80;;;25.00;50.10;;;;;;4030130;29;20481;-43
2022/12/20 12:05:28;;;;;;;2.80;0.50;;;25.00;50.10;;;;;;4030232;29;20037;-47
2022/12/20 12:08:05;;;;;;;1.77;0.60;;;25.00;50.20;;;;;;4030350;29;20059;-42
2022/12/20 12:10:36;;;;;;;2.35;0.70;;;25.00;50.20;;;;;;4028808;29;20048;-43
2022/12/20 12:13:23;;;;;;;2.47;0.60;;;24.90;50.20;;;;;;4029517;29;20333;-43
2022/12/20 12:16:07;;;;;;;3.13;0.40;;;24.90;50.20;;;;;;4031334;29;20045;-43
2022/12/20 12:18:31;;;;;;;2.17;0.57;;;24.90;50.10;;;;;;4026852;29;20044;-42
2022/12/20 12:21:06;;;;;;;2.30;0.35;;;24.90;50.20;;;;;;4028177;29;20469;-43
2022/12/20 12:23:44;;;;;;;3.85;0.80;;;24.90;50.10;;;;;;4034011;29;20044;-42
2022/12/20 12:26:24;;;;;;;3.15;0.60;;;24.90;50.20;;;;;;4027449;29;20040;-42
2022/12/20 12:28:58;;;;;;;2.25;0.60;;;24.90;50.20;;;;;;4029106;29;20033;-44
2022/12/20 12:31:29;;;;;;;3.58;0.50;;;24.80;50.10;;;;;;4030528;29;20108;-46
2022/12/20 12:34:34;;;;;;;2.60;0.50;;;24.80;50.20;;;;;;4028400;29;20293;-41
2022/12/20 12:36:59;;;;;;;3.63;0.60;;;24.80;50.20;;;;;;4036924;29;20123;-46
2022/12/20 12:39:55;;;;;;;3.10;0.50;;;24.80;50.20;;;;;;4038041;29;20044;-42
2022/12/20 12:42:54;;;;;;;2.47;0.38;;;24.70;50.10;;;;;;4039509;29;20093;-41
2022/12/20 12:45:24;;;;;;;0.95;0.50;;;24.70;50.10;;;;;;4036026;29;20135;-45
2022/12/20 12:48:01;;;;;;;0.50;0.32;;;24.70;50.10;;;;;;4030950;29;20109;-45
2022/12/20 12:50:38;;;;;;;0.68;0.30;;;24.70;50.30;;;;;;4037380;29;20112;-44
2022/12/20 12:53:19;;;;;;;0.20;0.20;;;24.60;50.10;;;;;;4023803;29;20350;-43
2022/12/20 12:55:53;;;;;;;2.20;0.40;;;24.60;50.10;;;;;;4034080;29;20036;-42
2022/12/20 12:58:24;;;;;;;0.22;0.22;;;24.60;50.20;;;;;;4036232;29;20032;-42
2022/12/20 13:00:51;;;;;;;0.28;0.20;;;24.60;50.20;;;;;;4036445;29;20504;-42
2022/12/20 13:03:16;;;;;;;0.35;0.30;;;24.50;50.20;;;;;;4038527;29;20047;-45
2022/12/20 13:05:39;;;;;;;0.50;0.20;;;24.50;50.30;;;;;;4035148;29;20048;-45